Aviation Digital Data Service (ADDS)

Output produced by METARs form (0052 UTC 06 December 2016)
found at http://aviationweather.gov/adds/metars/
 
KBPT 060051Z 0601/0624 28006KT 5SM BR OVC005 
     TEMPO 0602/0606 2SM BR OVC002 
     FM061300 28005KT P6SM BKN007 
     FM061500 28005KT P6SM SCT015